sensor_id;sensor_type;location;lat;lon;timestamp;pressure;altitude;pressure_sealevel;temperature;humidity
59650;BME280;46162;57.568;25.814;2023-01-28T00:01:39;102018.66;;;-3.11;100.00
59650;BME280;46162;57.568;25.814;2023-01-28T00:04:08;102029.72;;;-3.36;100.00
59650;BME280;46162;57.568;25.814;2023-01-28T00:06:36;102023.50;;;-3.33;100.00
59650;BME280;46162;57.568;25.814;2023-01-28T00:09:04;102022.88;;;-3.46;100.00
59650;BME280;46162;57.568;25.814;2023-01-28T00:11:33;102020.72;;;-3.27;100.00
59650;BME280;46162;57.568;25.814;2023-01-28T00:14:03;102013.19;;;-3.47;100.00
59650;BME280;46162;57.568;25.814;2023-01-28T00:16:32;102009.13;;;-3.63;100.00
59650;BME280;46162;57.568;25.814;2023-01-28T00:19:00;102016.84;;;-3.54;100.00
59650;BME280;46162;57.568;25.814;2023-01-28T00:21:29;102008.91;;;-3.53;100.00
59650;BME280;46162;57.568;25.814;2023-01-28T00:23:58;102007.13;;;-3.52;100.00
59650;BME280;46162;57.568;25.814;2023-01-28T00:26:26;102010.72;;;-3.56;100.00
59650;BME280;46162;57.568;25.814;2023-01-28T00:28:55;101999.28;;;-3.55;100.00
59650;BME280;46162;57.568;25.814;2023-01-28T00:31:25;102008.16;;;-3.59;100.00
59650;BME280;46162;57.568;25.814;2023-01-28T00:33:55;102007.59;;;-3.77;100.00
59650;BME280;46162;57.568;25.814;2023-01-28T00:36:25;102005.78;;;-3.75;100.00
59650;BME280;46162;57.568;25.814;2023-01-28T00:38:55;102003.75;;;-4.08;100.00
59650;BME280;46162;57.568;25.814;2023-01-28T00:41:26;101997.94;;;-4.27;100.00
59650;BME280;46162;57.568;25.814;2023-01-28T00:43:57;101992.47;;;-4.17;100.00
59650;BME280;46162;57.568;25.814;2023-01-28T00:46:29;101995.09;;;-4.15;100.00
59650;BME280;46162;57.568;25.814;2023-01-28T00:48:58;101993.19;;;-4.07;100.00
59650;BME280;46162;57.568;25.814;2023-01-28T00:51:27;101997.47;;;-4.01;100.00
59650;BME280;46162;57.568;25.814;2023-01-28T00:53:56;101995.75;;;-4.02;100.00
59650;BME280;46162;57.568;25.814;2023-01-28T00:56:26;102005.31;;;-3.98;100.00
59650;BME280;46162;57.568;25.814;2023-01-28T00:58:55;101993.97;;;-4.03;100.00
59650;BME280;46162;57.568;25.814;2023-01-28T01:01:25;101990.56;;;-4.08;100.00
59650;BME280;46162;57.568;25.814;2023-01-28T01:03:55;101987.13;;;-4.12;100.00
59650;BME280;46162;57.568;25.814;2023-01-28T01:06:31;101989.03;;;-4.22;100.00
59650;BME280;46162;57.568;25.814;2023-01-28T01:09:02;101996.16;;;-4.27;100.00
59650;BME280;46162;57.568;25.814;2023-01-28T01:11:34;101988.97;;;-4.19;100.00
59650;BME280;46162;57.568;25.814;2023-01-28T01:14:03;101988.38;;;-4.36;100.00
59650;BME280;46162;57.568;25.814;2023-01-28T01:16:33;101990.81;;;-4.24;100.00
59650;BME280;46162;57.568;25.814;2023-01-28T01:19:04;101982.75;;;-4.15;100.00
59650;BME280;46162;57.568;25.814;2023-01-28T01:21:35;101987.84;;;-4.04;100.00
59650;BME280;46162;57.568;25.814;2023-01-28T01:24:04;101990.81;;;-4.22;100.00
59650;BME280;46162;57.568;25.814;2023-01-28T01:26:33;101980.00;;;-4.07;100.00
59650;BME280;46162;57.568;25.814;2023-01-28T01:29:01;101972.78;;;-3.97;100.00
59650;BME280;46162;57.568;25.814;2023-01-28T01:31:30;101979.28;;;-4.17;100.00
59650;BME280;46162;57.568;25.814;2023-01-28T01:33:59;101979.75;;;-4.44;100.00
59650;BME280;46162;57.568;25.814;2023-01-28T01:36:30;101977.97;;;-4.42;100.00
59650;BME280;46162;57.568;25.814;2023-01-28T01:38:58;101976.97;;;-4.35;100.00
59650;BME280;46162;57.568;25.814;2023-01-28T01:41:29;101967.22;;;-4.30;100.00
59650;BME280;46162;57.568;25.814;2023-01-28T01:43:59;101963.78;;;-4.37;100.00
59650;BME280;46162;57.568;25.814;2023-01-28T01:46:33;101957.59;;;-4.34;100.00
59650;BME280;46162;57.568;25.814;2023-01-28T01:49:10;101963.72;;;-4.32;100.00
59650;BME280;46162;57.568;25.814;2023-01-28T01:51:44;101963.06;;;-4.46;100.00
59650;BME280;46162;57.568;25.814;2023-01-28T01:54:14;101962.13;;;-4.42;100.00
59650;BME280;46162;57.568;25.814;2023-01-28T01:56:45;101970.97;;;-4.45;100.00
59650;BME280;46162;57.568;25.814;2023-01-28T01:59:22;101962.25;;;-4.50;100.00
59650;BME280;46162;57.568;25.814;2023-01-28T02:01:54;101966.16;;;-4.76;100.00
59650;BME280;46162;57.568;25.814;2023-01-28T02:04:25;101963.31;;;-4.62;100.00
59650;BME280;46162;57.568;25.814;2023-01-28T02:06:57;101962.47;;;-4.62;100.00
59650;BME280;46162;57.568;25.814;2023-01-28T02:09:29;101969.59;;;-4.70;100.00
59650;BME280;46162;57.568;25.814;2023-01-28T02:12:00;101966.94;;;-4.69;100.00
59650;BME280;46162;57.568;25.814;2023-01-28T02:14:33;101963.50;;;-4.74;100.00
59650;BME280;46162;57.568;25.814;2023-01-28T02:17:03;101960.63;;;-4.59;100.00
59650;BME280;46162;57.568;25.814;2023-01-28T02:19:37;101961.38;;;-4.50;100.00
59650;BME280;46162;57.568;25.814;2023-01-28T02:25:28;101949.25;;;-4.61;100.00
59650;BME280;46162;57.568;25.814;2023-01-28T02:28:15;101944.00;;;-4.62;100.00
59650;BME280;46162;57.568;25.814;2023-01-28T02:30:52;101951.75;;;-4.53;100.00
59650;BME280;46162;57.568;25.814;2023-01-28T02:33:28;101951.06;;;-4.66;100.00
59650;BME280;46162;57.568;25.814;2023-01-28T02:36:02;101955.47;;;-4.65;100.00
59650;BME280;46162;57.568;25.814;2023-01-28T02:38:38;101954.56;;;-4.64;100.00
59650;BME280;46162;57.568;25.814;2023-01-28T02:41:14;101951.03;;;-4.63;100.00
59650;BME280;46162;57.568;25.814;2023-01-28T02:43:48;101950.03;;;-4.56;100.00
59650;BME280;46162;57.568;25.814;2023-01-28T02:46:21;101951.72;;;-4.51;100.00
59650;BME280;46162;57.568;25.814;2023-01-28T02:49:20;101951.94;;;-4.65;100.00
59650;BME280;46162;57.568;25.814;2023-01-28T02:52:03;101938.75;;;-4.62;100.00
59650;BME280;46162;57.568;25.814;2023-01-28T02:54:38;101935.22;;;-4.63;100.00
59650;BME280;46162;57.568;25.814;2023-01-28T02:57:24;101934.22;;;-4.54;100.00
59650;BME280;46162;57.568;25.814;2023-01-28T03:00:03;101936.09;;;-4.62;100.00
59650;BME280;46162;57.568;25.814;2023-01-28T03:02:40;101939.69;;;-4.68;100.00
59650;BME280;46162;57.568;25.814;2023-01-28T03:05:16;101936.13;;;-4.65;100.00
59650;BME280;46162;57.568;25.814;2023-01-28T03:07:49;101936.19;;;-4.70;100.00
59650;BME280;46162;57.568;25.814;2023-01-28T03:10:21;101938.16;;;-4.81;100.00
59650;BME280;46162;57.568;25.814;2023-01-28T03:12:53;101936.31;;;-4.76;100.00
59650;BME280;46162;57.568;25.814;2023-01-28T03:15:42;101939.00;;;-4.81;100.00
59650;BME280;46162;57.568;25.814;2023-01-28T03:18:35;101937.22;;;-4.77;100.00
59650;BME280;46162;57.568;25.814;2023-01-28T03:21:28;101935.50;;;-4.81;100.00
59650;BME280;46162;57.568;25.814;2023-01-28T03:24:20;101934.53;;;-4.76;100.00
59650;BME280;46162;57.568;25.814;2023-01-28T03:27:12;101935.47;;;-4.78;100.00
59650;BME280;46162;57.568;25.814;2023-01-28T03:30:10;101942.50;;;-4.80;100.00
59650;BME280;46162;57.568;25.814;2023-01-28T03:33:04;101938.19;;;-4.84;100.00
59650;BME280;46162;57.568;25.814;2023-01-28T03:35:51;101938.16;;;-4.81;100.00
59650;BME280;46162;57.568;25.814;2023-01-28T03:38:39;101950.44;;;-4.82;100.00
59650;BME280;46162;57.568;25.814;2023-01-28T03:41:20;101959.22;;;-4.83;100.00
59650;BME280;46162;57.568;25.814;2023-01-28T03:43:50;101953.09;;;-4.85;100.00
59650;BME280;46162;57.568;25.814;2023-01-28T03:46:19;101960.03;;;-4.76;100.00
59650;BME280;46162;57.568;25.814;2023-01-28T03:48:49;101951.31;;;-4.81;100.00
59650;BME280;46162;57.568;25.814;2023-01-28T03:51:19;101950.22;;;-4.66;100.00
59650;BME280;46162;57.568;25.814;2023-01-28T03:53:48;101957.28;;;-4.70;100.00
59650;BME280;46162;57.568;25.814;2023-01-28T03:56:17;101952.06;;;-4.71;100.00
59650;BME280;46162;57.568;25.814;2023-01-28T03:58:52;101939.94;;;-4.85;100.00
59650;BME280;46162;57.568;25.814;2023-01-28T04:01:22;101952.97;;;-4.74;100.00
59650;BME280;46162;57.568;25.814;2023-01-28T04:03:53;101955.75;;;-4.85;100.00
59650;BME280;46162;57.568;25.814;2023-01-28T04:06:27;101953.16;;;-4.86;100.00
59650;BME280;46162;57.568;25.814;2023-01-28T04:09:19;101940.09;;;-4.94;100.00
59650;BME280;46162;57.568;25.814;2023-01-28T04:11:54;101937.41;;;-4.92;100.00
59650;BME280;46162;57.568;25.814;2023-01-28T04:14:29;101933.97;;;-4.98;100.00
59650;BME280;46162;57.568;25.814;2023-01-28T04:17:07;101935.94;;;-5.10;100.00
59650;BME280;46162;57.568;25.814;2023-01-28T04:19:40;101933.22;;;-5.06;100.00
59650;BME280;46162;57.568;25.814;2023-01-28T04:22:11;101935.13;;;-5.14;100.00
59650;BME280;46162;57.568;25.814;2023-01-28T04:24:41;101937.81;;;-5.20;100.00
59650;BME280;46162;57.568;25.814;2023-01-28T04:27:10;101931.59;;;-5.14;100.00
59650;BME280;46162;57.568;25.814;2023-01-28T04:29:39;101929.00;;;-5.16;100.00
59650;BME280;46162;57.568;25.814;2023-01-28T04:32:27;101920.25;;;-5.18;100.00
59650;BME280;46162;57.568;25.814;2023-01-28T04:35:24;101914.06;;;-5.17;100.00
59650;BME280;46162;57.568;25.814;2023-01-28T04:38:04;101909.59;;;-5.12;100.00
59650;BME280;46162;57.568;25.814;2023-01-28T04:40:43;101915.72;;;-5.10;100.00
59650;BME280;46162;57.568;25.814;2023-01-28T04:43:28;101911.25;;;-5.05;100.00
59650;BME280;46162;57.568;25.814;2023-01-28T04:46:15;101913.78;;;-4.97;100.00
59650;BME280;46162;57.568;25.814;2023-01-28T04:49:11;101916.69;;;-5.14;100.00
59650;BME280;46162;57.568;25.814;2023-01-28T04:52:14;101915.03;;;-5.21;100.00
59650;BME280;46162;57.568;25.814;2023-01-28T04:55:01;101907.88;;;-5.13;100.00
59650;BME280;46162;57.568;25.814;2023-01-28T04:57:31;101910.47;;;-5.10;100.00
59650;BME280;46162;57.568;25.814;2023-01-28T05:00:00;101904.31;;;-5.09;100.00
59650;BME280;46162;57.568;25.814;2023-01-28T05:02:29;101906.09;;;-5.11;100.00
59650;BME280;46162;57.568;25.814;2023-01-28T05:04:58;101907.88;;;-5.13;100.00
59650;BME280;46162;57.568;25.814;2023-01-28T05:07:40;101899.06;;;-5.10;100.00
59650;BME280;46162;57.568;25.814;2023-01-28T05:10:10;101892.06;;;-5.13;100.00
59650;BME280;46162;57.568;25.814;2023-01-28T05:12:39;101894.63;;;-5.07;100.00
59650;BME280;46162;57.568;25.814;2023-01-28T05:15:08;101891.94;;;-5.04;100.00
59650;BME280;46162;57.568;25.814;2023-01-28T05:17:37;101897.28;;;-5.10;100.00
59650;BME280;46162;57.568;25.814;2023-01-28T05:20:14;101897.28;;;-5.10;100.00
59650;BME280;46162;57.568;25.814;2023-01-28T05:22:47;101892.06;;;-5.11;100.00
59650;BME280;46162;57.568;25.814;2023-01-28T05:25:22;101889.38;;;-5.08;100.00
59650;BME280;46162;57.568;25.814;2023-01-28T05:27:53;101896.47;;;-5.13;100.00
59650;BME280;46162;57.568;25.814;2023-01-28T05:30:25;101889.41;;;-5.10;100.00
59650;BME280;46162;57.568;25.814;2023-01-28T05:32:54;101889.44;;;-5.11;100.00
59650;BME280;46162;57.568;25.814;2023-01-28T05:35:24;101888.53;;;-5.09;100.00
59650;BME280;46162;57.568;25.814;2023-01-28T05:37:55;101889.41;;;-5.10;100.00
59650;BME280;46162;57.568;25.814;2023-01-28T05:40:25;101895.63;;;-5.15;100.00
59650;BME280;46162;57.568;25.814;2023-01-28T05:42:53;101890.38;;;-5.17;100.00
59650;BME280;46162;57.568;25.814;2023-01-28T05:45:34;101896.53;;;-5.18;100.00
59650;BME280;46162;57.568;25.814;2023-01-28T05:48:26;101898.38;;;-5.22;100.00
59650;BME280;46162;57.568;25.814;2023-01-28T05:51:13;101895.84;;;-5.32;100.00
59650;BME280;46162;57.568;25.814;2023-01-28T05:53:46;101886.25;;;-5.35;100.00
59650;BME280;46162;57.568;25.814;2023-01-28T05:56:15;101888.88;;;-5.33;100.00
59650;BME280;46162;57.568;25.814;2023-01-28T05:58:45;101887.09;;;-5.33;100.00
59650;BME280;46162;57.568;25.814;2023-01-28T06:01:13;101882.50;;;-5.19;100.00
59650;BME280;46162;57.568;25.814;2023-01-28T06:03:49;101885.97;;;-5.15;100.00
59650;BME280;46162;57.568;25.814;2023-01-28T06:06:18;101877.31;;;-5.25;100.00
59650;BME280;46162;57.568;25.814;2023-01-28T06:08:48;101875.59;;;-5.27;100.00
59650;BME280;46162;57.568;25.814;2023-01-28T06:11:23;101878.19;;;-5.23;100.00
59650;BME280;46162;57.568;25.814;2023-01-28T06:13:56;101873.84;;;-5.27;100.00
59650;BME280;46162;57.568;25.814;2023-01-28T06:16:41;101871.13;;;-5.19;100.00
59650;BME280;46162;57.568;25.814;2023-01-28T06:19:10;101873.72;;;-5.18;100.00
59650;BME280;46162;57.568;25.814;2023-01-28T06:21:40;101868.44;;;-5.18;100.00
59650;BME280;46162;57.568;25.814;2023-01-28T06:24:12;101865.63;;;-5.04;100.00
59650;BME280;46162;57.568;25.814;2023-01-28T06:26:43;101865.56;;;-5.01;100.00
59650;BME280;46162;57.568;25.814;2023-01-28T06:29:13;101862.97;;;-5.04;100.00
59650;BME280;46162;57.568;25.814;2023-01-28T06:31:42;101862.25;;;-5.15;100.00
59650;BME280;46162;57.568;25.814;2023-01-28T06:34:11;101862.13;;;-5.06;100.00
59650;BME280;46162;57.568;25.814;2023-01-28T06:36:43;101862.06;;;-5.03;100.00
59650;BME280;46162;57.568;25.814;2023-01-28T06:39:13;101857.66;;;-5.02;100.00
59650;BME280;46162;57.568;25.814;2023-01-28T06:41:42;101865.66;;;-5.07;100.00
59650;BME280;46162;57.568;25.814;2023-01-28T06:44:11;101861.41;;;-5.15;100.00
59650;BME280;46162;57.568;25.814;2023-01-28T06:46:40;101873.84;;;-5.27;100.00
59650;BME280;46162;57.568;25.814;2023-01-28T06:49:09;101870.28;;;-5.23;100.00
59650;BME280;46162;57.568;25.814;2023-01-28T06:51:37;101873.72;;;-5.18;100.00
59650;BME280;46162;57.568;25.814;2023-01-28T06:54:06;101864.22;;;-5.28;100.00
59650;BME280;46162;57.568;25.814;2023-01-28T06:56:37;101862.38;;;-5.23;100.00
59650;BME280;46162;57.568;25.814;2023-01-28T06:59:05;101868.50;;;-5.21;100.00
59650;BME280;46162;57.568;25.814;2023-01-28T07:01:34;101865.88;;;-5.22;100.00
59650;BME280;46162;57.568;25.814;2023-01-28T07:04:03;101868.44;;;-5.18;100.00
59650;BME280;46162;57.568;25.814;2023-01-28T07:06:33;101862.22;;;-5.12;100.00
59650;BME280;46162;57.568;25.814;2023-01-28T07:09:02;101865.84;;;-5.19;100.00
59650;BME280;46162;57.568;25.814;2023-01-28T07:11:31;101868.44;;;-5.18;100.00
59650;BME280;46162;57.568;25.814;2023-01-28T07:14:08;101861.38;;;-5.14;100.00
59650;BME280;46162;57.568;25.814;2023-01-28T07:16:37;101854.53;;;-5.24;100.00
59650;BME280;46162;57.568;25.814;2023-01-28T07:19:07;101855.34;;;-5.22;100.00
59650;BME280;46162;57.568;25.814;2023-01-28T07:21:39;101857.06;;;-5.20;100.00
59650;BME280;46162;57.568;25.814;2023-01-28T07:24:09;101858.03;;;-5.24;100.00
59650;BME280;46162;57.568;25.814;2023-01-28T07:26:38;101852.88;;;-5.31;100.00
59650;BME280;46162;57.568;25.814;2023-01-28T07:29:15;101851.97;;;-5.30;100.00
59650;BME280;46162;57.568;25.814;2023-01-28T07:31:46;101852.00;;;-5.33;100.00
59650;BME280;46162;57.568;25.814;2023-01-28T07:34:15;101851.97;;;-5.30;100.00
59650;BME280;46162;57.568;25.814;2023-01-28T07:36:46;101856.44;;;-5.37;100.00
59650;BME280;46162;57.568;25.814;2023-01-28T07:39:15;101852.06;;;-5.38;100.00
59650;BME280;46162;57.568;25.814;2023-01-28T07:41:44;101853.75;;;-5.32;100.00
59650;BME280;46162;57.568;25.814;2023-01-28T07:44:32;101853.69;;;-5.29;100.00
59650;BME280;46162;57.568;25.814;2023-01-28T07:47:04;101852.81;;;-5.30;100.00
59650;BME280;46162;57.568;25.814;2023-01-28T07:49:35;101847.50;;;-5.27;100.00
59650;BME280;46162;57.568;25.814;2023-01-28T07:52:07;101845.91;;;-5.35;100.00
59650;BME280;46162;57.568;25.814;2023-01-28T07:54:36;101844.06;;;-5.29;100.00
59650;BME280;46162;57.568;25.814;2023-01-28T07:57:07;101839.66;;;-5.28;100.00
59650;BME280;46162;57.568;25.814;2023-01-28T07:59:38;101837.88;;;-5.28;100.00
59650;BME280;46162;57.568;25.814;2023-01-28T08:02:11;101836.97;;;-5.27;100.00
59650;BME280;46162;57.568;25.814;2023-01-28T08:04:40;101837.06;;;-5.31;100.00
59650;BME280;46162;57.568;25.814;2023-01-28T08:07:09;101841.66;;;-5.47;100.00
59650;BME280;46162;57.568;25.814;2023-01-28T08:09:39;101830.22;;;-5.43;100.00
59650;BME280;46162;57.568;25.814;2023-01-28T08:12:07;101832.69;;;-5.31;100.00
59650;BME280;46162;57.568;25.814;2023-01-28T08:14:37;101840.59;;;-5.32;100.00
59650;BME280;46162;57.568;25.814;2023-01-28T08:17:06;101843.16;;;-5.28;100.00
59650;BME280;46162;57.568;25.814;2023-01-28T08:19:35;101839.53;;;-5.22;100.00
59650;BME280;46162;57.568;25.814;2023-01-28T08:22:04;101833.28;;;-5.15;100.00
59650;BME280;46162;57.568;25.814;2023-01-28T08:24:33;101838.59;;;-5.16;100.00
59650;BME280;46162;57.568;25.814;2023-01-28T08:27:02;101837.69;;;-5.15;100.00
59650;BME280;46162;57.568;25.814;2023-01-28T08:29:31;101833.28;;;-5.15;100.00
59650;BME280;46162;57.568;25.814;2023-01-28T08:32:02;101834.22;;;-5.16;100.00
59650;BME280;46162;57.568;25.814;2023-01-28T08:34:30;101833.41;;;-5.21;100.00
59650;BME280;46162;57.568;25.814;2023-01-28T08:36:59;101824.66;;;-5.25;100.00
59650;BME280;46162;57.568;25.814;2023-01-28T08:39:28;101814.97;;;-5.21;100.00
59650;BME280;46162;57.568;25.814;2023-01-28T08:41:57;101814.91;;;-5.18;100.00
59650;BME280;46162;57.568;25.814;2023-01-28T08:44:26;101800.84;;;-5.17;100.00
59650;BME280;46162;57.568;25.814;2023-01-28T08:47:03;101806.19;;;-5.20;100.00
59650;BME280;46162;57.568;25.814;2023-01-28T08:49:32;101808.72;;;-5.14;100.00
59650;BME280;46162;57.568;25.814;2023-01-28T08:52:01;101805.25;;;-5.16;100.00
59650;BME280;46162;57.568;25.814;2023-01-28T08:54:29;101795.50;;;-5.11;100.00
59650;BME280;46162;57.568;25.814;2023-01-28T08:57:03;101797.19;;;-5.07;100.00
59650;BME280;46162;57.568;25.814;2023-01-28T08:59:32;101788.41;;;-5.06;100.00
59650;BME280;46162;57.568;25.814;2023-01-28T09:02:03;101793.59;;;-5.01;100.00
59650;BME280;46162;57.568;25.814;2023-01-28T09:04:31;101783.78;;;-4.93;100.00
59650;BME280;46162;57.568;25.814;2023-01-28T09:07:00;101779.34;;;-4.89;100.00
59650;BME280;46162;57.568;25.814;2023-01-28T09:09:29;101777.72;;;-4.97;100.00
59650;BME280;46162;57.568;25.814;2023-01-28T09:11:58;101778.63;;;-4.99;100.00
59650;BME280;46162;57.568;25.814;2023-01-28T09:14:27;101771.63;;;-5.00;100.00
59650;BME280;46162;57.568;25.814;2023-01-28T09:16:56;101774.13;;;-4.92;100.00
59650;BME280;46162;57.568;25.814;2023-01-28T09:19:26;101760.94;;;-4.92;100.00
59650;BME280;46162;57.568;25.814;2023-01-28T09:21:55;101755.72;;;-4.94;100.00
59650;BME280;46162;57.568;25.814;2023-01-28T09:24:24;101751.41;;;-5.00;100.00
59650;BME280;46162;57.568;25.814;2023-01-28T09:26:52;101749.69;;;-5.01;100.00
59650;BME280;46162;57.568;25.814;2023-01-28T09:29:21;101739.16;;;-5.02;100.00
59650;BME280;46162;57.568;25.814;2023-01-28T09:31:49;101754.88;;;-4.94;100.00
59650;BME280;46162;57.568;25.814;2023-01-28T09:34:18;101736.44;;;-4.96;100.00
59650;BME280;46162;57.568;25.814;2023-01-28T09:36:48;101743.50;;;-5.00;100.00
59650;BME280;46162;57.568;25.814;2023-01-28T09:39:17;101741.78;;;-5.02;100.00
59650;BME280;46162;57.568;25.814;2023-01-28T09:41:53;101741.72;;;-4.98;100.00
59650;BME280;46162;57.568;25.814;2023-01-28T09:44:35;101741.91;;;-5.07;100.00
59650;BME280;46162;57.568;25.814;2023-01-28T09:47:17;101741.94;;;-5.10;100.00
59650;BME280;46162;57.568;25.814;2023-01-28T09:49:50;101734.16;;;-5.16;100.00
59650;BME280;46162;57.568;25.814;2023-01-28T09:52:23;101720.88;;;-5.10;100.00
59650;BME280;46162;57.568;25.814;2023-01-28T09:54:55;101726.88;;;-5.02;100.00
59650;BME280;46162;57.568;25.814;2023-01-28T09:57:32;101719.94;;;-5.07;100.00
59650;BME280;46162;57.568;25.814;2023-01-28T10:00:11;101706.75;;;-5.04;100.00
59650;BME280;46162;57.568;25.814;2023-01-28T10:02:53;101695.19;;;-4.97;100.00
59650;BME280;46162;57.568;25.814;2023-01-28T10:05:32;101696.09;;;-5.00;100.00
59650;BME280;46162;57.568;25.814;2023-01-28T10:08:21;101697.72;;;-4.92;100.00
59650;BME280;46162;57.568;25.814;2023-01-28T10:11:01;101699.44;;;-4.90;100.00
59650;BME280;46162;57.568;25.814;2023-01-28T10:13:39;101696.78;;;-4.87;100.00
59650;BME280;46162;57.568;25.814;2023-01-28T10:16:23;101679.09;;;-4.82;100.00
59650;BME280;46162;57.568;25.814;2023-01-28T10:18:55;101677.34;;;-4.83;100.00
59650;BME280;46162;57.568;25.814;2023-01-28T10:21:29;101671.97;;;-4.77;100.00
59650;BME280;46162;57.568;25.814;2023-01-28T10:24:02;101669.34;;;-4.77;100.00
59650;BME280;46162;57.568;25.814;2023-01-28T10:26:36;101664.09;;;-4.78;100.00
59650;BME280;46162;57.568;25.814;2023-01-28T10:29:11;101658.75;;;-4.73;100.00
59650;BME280;46162;57.568;25.814;2023-01-28T10:31:49;101650.91;;;-4.77;100.00
59650;BME280;46162;57.568;25.814;2023-01-28T10:34:20;101643.00;;;-4.77;100.00
59650;BME280;46162;57.568;25.814;2023-01-28T10:36:52;101636.81;;;-4.74;100.00
59650;BME280;46162;57.568;25.814;2023-01-28T10:39:25;101649.00;;;-4.70;100.00
59650;BME280;46162;57.568;25.814;2023-01-28T10:41:55;101634.16;;;-4.74;100.00
59650;BME280;46162;57.568;25.814;2023-01-28T10:44:34;101643.72;;;-4.70;100.00
59650;BME280;46162;57.568;25.814;2023-01-28T10:47:10;101639.34;;;-4.69;100.00
59650;BME280;46162;57.568;25.814;2023-01-28T10:49:44;101638.44;;;-4.70;100.00
59650;BME280;46162;57.568;25.814;2023-01-28T10:52:16;101626.97;;;-4.66;100.00
59650;BME280;46162;57.568;25.814;2023-01-28T10:54:46;101636.72;;;-4.71;100.00
59650;BME280;46162;57.568;25.814;2023-01-28T10:57:17;101635.03;;;-4.75;100.00
59650;BME280;46162;57.568;25.814;2023-01-28T10:59:46;101630.78;;;-4.82;100.00
59650;BME280;46162;57.568;25.814;2023-01-28T11:02:25;101623.81;;;-4.85;100.00
59650;BME280;46162;57.568;25.814;2023-01-28T11:05:05;101622.91;;;-4.82;100.00
59650;BME280;46162;57.568;25.814;2023-01-28T11:07:34;101615.06;;;-4.85;100.00
59650;BME280;46162;57.568;25.814;2023-01-28T11:10:23;101616.84;;;-4.87;100.00
59650;BME280;46162;57.568;25.814;2023-01-28T11:12:57;101621.25;;;-4.86;100.00
59650;BME280;46162;57.568;25.814;2023-01-28T11:15:25;101619.44;;;-4.84;100.00
59650;BME280;46162;57.568;25.814;2023-01-28T11:17:57;101611.53;;;-4.84;100.00
59650;BME280;46162;57.568;25.814;2023-01-28T11:20:30;101612.41;;;-4.84;100.00
59650;BME280;46162;57.568;25.814;2023-01-28T11:23:02;101607.22;;;-4.87;100.00
59650;BME280;46162;57.568;25.814;2023-01-28T11:25:33;101599.25;;;-4.84;100.00
59650;BME280;46162;57.568;25.814;2023-01-28T11:28:05;101598.38;;;-4.84;100.00
59650;BME280;46162;57.568;25.814;2023-01-28T11:30:37;101598.22;;;-4.78;100.00
59650;BME280;46162;57.568;25.814;2023-01-28T11:33:06;101592.09;;;-4.79;100.00
59650;BME280;46162;57.568;25.814;2023-01-28T11:35:42;101590.34;;;-4.78;100.00
59650;BME280;46162;57.568;25.814;2023-01-28T11:38:21;101592.25;;;-4.86;100.00
59650;BME280;46162;57.568;25.814;2023-01-28T11:40:53;101584.28;;;-4.82;100.00
59650;BME280;46162;57.568;25.814;2023-01-28T11:43:24;101582.50;;;-4.81;100.00
59650;BME280;46162;57.568;25.814;2023-01-28T11:45:58;101585.16;;;-4.83;100.00
59650;BME280;46162;57.568;25.814;2023-01-28T11:48:38;101582.69;;;-4.90;100.00
59650;BME280;46162;57.568;25.814;2023-01-28T11:51:23;101568.66;;;-4.92;100.00
59650;BME280;46162;57.568;25.814;2023-01-28T11:54:05;101554.63;;;-4.91;100.00
59650;BME280;46162;57.568;25.814;2023-01-28T11:56:52;101567.69;;;-4.87;100.00
59650;BME280;46162;57.568;25.814;2023-01-28T11:59:44;101556.41;;;-4.93;100.00
59650;BME280;46162;57.568;25.814;2023-01-28T12:02:21;101551.91;;;-4.88;100.00
59650;BME280;46162;57.568;25.814;2023-01-28T12:05:06;101538.75;;;-4.88;100.00
59650;BME280;46162;57.568;25.814;2023-01-28T12:07:42;101530.84;;;-4.88;100.00
59650;BME280;46162;57.568;25.814;2023-01-28T12:10:19;101529.13;;;-4.91;100.00
59650;BME280;46162;57.568;25.814;2023-01-28T12:13:07;101518.59;;;-4.89;100.00
59650;BME280;46162;57.568;25.814;2023-01-28T12:19:13;101505.47;;;-4.92;100.00
59650;BME280;46162;57.568;25.814;2023-01-28T12:22:04;101506.31;;;-4.90;100.00
59650;BME280;46162;57.568;25.814;2023-01-28T12:24:50;101503.72;;;-4.92;100.00
59650;BME280;46162;57.568;25.814;2023-01-28T12:27:35;101499.38;;;-4.94;100.00
59650;BME280;46162;57.568;25.814;2023-01-28T12:30:22;101502.03;;;-4.94;100.00
59650;BME280;46162;57.568;25.814;2023-01-28T12:33:11;101492.38;;;-4.95;100.00
59650;BME280;46162;57.568;25.814;2023-01-28T12:35:53;101502.81;;;-4.92;100.00
59650;BME280;46162;57.568;25.814;2023-01-28T12:38:39;101494.94;;;-4.92;100.00
59650;BME280;46162;57.568;25.814;2023-01-28T12:41:11;101488.72;;;-4.90;100.00
59650;BME280;46162;57.568;25.814;2023-01-28T12:43:49;101479.13;;;-4.92;100.00
59650;BME280;46162;57.568;25.814;2023-01-28T12:46:37;101485.22;;;-4.90;100.00
59650;BME280;46162;57.568;25.814;2023-01-28T12:49:13;101485.13;;;-4.86;100.00
59650;BME280;46162;57.568;25.814;2023-01-28T12:51:55;101478.25;;;-4.91;100.00
59650;BME280;46162;57.568;25.814;2023-01-28T12:54:30;101470.25;;;-4.87;100.00
59650;BME280;46162;57.568;25.814;2023-01-28T12:57:02;101464.84;;;-4.82;100.00
59650;BME280;46162;57.568;25.814;2023-01-28T12:59:35;101464.78;;;-4.79;100.00
59650;BME280;46162;57.568;25.814;2023-01-28T13:02:17;101459.56;;;-4.82;100.00
59650;BME280;46162;57.568;25.814;2023-01-28T13:04:51;101459.66;;;-4.85;100.00
59650;BME280;46162;57.568;25.814;2023-01-28T13:07:24;101449.94;;;-4.83;100.00
59650;BME280;46162;57.568;25.814;2023-01-28T13:10:00;101449.03;;;-4.82;100.00
59650;BME280;46162;57.568;25.814;2023-01-28T13:12:31;101454.31;;;-4.82;100.00